Time;durP1;ratioP1;P1;durP2;ratioP2;P2;SDS_P1;SDS_P2;PMS_P1;PMS_P2;Temp;Humidity;BMP_temperature;BMP_pressure;BME280_temperature;BME280_humidity;BME280_pressure;Samples;Min_cycle;Max_cycle;Signal;HPM_P1;HPM_P2
2021/08/07 00:02:11;;;;;;;4.03;1.83;;;16.00;99.90;;;;;;5051279;28;20213;-61
2021/08/07 00:04:38;;;;;;;2.50;1.90;;;16.00;99.90;;;;;;5049962;28;20616;-61
2021/08/07 00:07:05;;;;;;;3.37;1.83;;;16.00;99.90;;;;;;5051281;28;20209;-61
2021/08/07 00:09:31;;;;;;;3.97;2.27;;;16.00;1.00;;;;;;5051411;28;20229;-61
2021/08/07 00:11:58;;;;;;;1.90;1.70;;;16.00;1.00;;;;;;5049949;28;20254;-61
2021/08/07 00:14:26;;;;;;;2.20;2.00;;;16.00;99.90;;;;;;5050148;28;20255;-61
2021/08/07 00:16:52;;;;;;;2.53;2.07;;;16.00;93.70;;;;;;5051311;28;20283;-61
2021/08/07 00:19:19;;;;;;;4.50;2.00;;;16.00;99.90;;;;;;5051305;28;20260;-61
2021/08/07 00:21:46;;;;;;;3.23;1.97;;;16.00;99.90;;;;;;5051216;28;20214;-61
2021/08/07 00:24:12;;;;;;;2.73;2.00;;;16.00;99.90;;;;;;5050357;28;20209;-61
2021/08/07 00:26:40;;;;;;;3.03;2.00;;;15.90;99.90;;;;;;5051078;28;20633;-61
2021/08/07 00:29:06;;;;;;;5.80;2.13;;;16.00;40.20;;;;;;5045581;28;20680;-61
2021/08/07 00:31:34;;;;;;;4.60;2.27;;;16.00;1.00;;;;;;5030403;28;20210;-61
2021/08/07 00:34:01;;;;;;;2.53;1.90;;;16.00;1.00;;;;;;5031249;28;20674;-61
2021/08/07 00:36:28;;;;;;;3.23;2.00;;;16.00;1.00;;;;;;5031678;28;20230;-61
2021/08/07 00:38:54;;;;;;;2.43;1.50;;;16.00;1.00;;;;;;5030833;28;20868;-61
2021/08/07 00:41:21;;;;;;;6.83;2.47;;;16.00;1.00;;;;;;5030693;28;20284;-60
2021/08/07 00:43:47;;;;;;;4.37;2.00;;;16.00;1.00;;;;;;5031419;28;20265;-61
2021/08/07 00:46:14;;;;;;;2.57;1.93;;;16.00;1.00;;;;;;5035363;28;20695;-61
2021/08/07 00:48:42;;;;;;;3.40;2.10;;;15.90;99.90;;;;;;5050827;28;20265;-61
2021/08/07 00:51:09;;;;;;;3.07;1.90;;;15.90;99.90;;;;;;5052595;28;20756;-60
2021/08/07 00:53:36;;;;;;;3.07;2.00;;;16.00;99.90;;;;;;5054708;28;20205;-61
2021/08/07 00:56:03;;;;;;;1.97;1.77;;;16.00;99.90;;;;;;5053596;28;20225;-61
2021/08/07 00:58:29;;;;;;;3.50;2.50;;;16.00;99.90;;;;;;5054467;28;20259;-61
2021/08/07 01:00:56;;;;;;;3.07;2.10;;;16.00;99.90;;;;;;5054894;28;20233;-60
2021/08/07 01:03:32;;;;;;;5.50;2.00;;;16.00;99.90;;;;;;5053200;28;20224;-61
2021/08/07 01:06:12;;;;;;;4.23;1.80;;;16.00;99.90;;;;;;5054892;28;20292;-60
2021/08/07 01:08:43;;;;;;;3.00;1.80;;;16.10;90.90;;;;;;5054196;28;20209;-61
2021/08/07 01:11:16;;;;;;;2.87;2.23;;;16.10;99.90;;;;;;5054268;28;20230;-60
2021/08/07 01:13:46;;;;;;;3.37;2.03;;;16.10;99.90;;;;;;5054586;28;20209;-61
2021/08/07 01:16:15;;;;;;;2.53;2.30;;;16.10;99.90;;;;;;5053407;28;20834;-60
2021/08/07 01:18:44;;;;;;;3.10;2.17;;;16.10;99.90;;;;;;5053831;28;20210;-61
2021/08/07 01:21:15;;;;;;;2.93;2.33;;;16.10;99.90;;;;;;5037641;28;20230;-61
2021/08/07 01:23:49;;;;;;;6.07;2.40;;;16.10;99.90;;;;;;5034418;28;20260;-61
2021/08/07 01:26:23;;;;;;;3.87;2.30;;;16.00;1.00;;;;;;5033310;28;20245;-61
2021/08/07 01:28:53;;;;;;;3.40;2.10;;;16.00;6.10;;;;;;5034311;28;20214;-61
2021/08/07 01:31:22;;;;;;;2.30;1.90;;;16.00;99.90;;;;;;5033774;28;20800;-61
2021/08/07 01:33:49;;;;;;;6.40;2.33;;;15.90;99.90;;;;;;5033521;28;20264;-61
2021/08/07 01:36:17;;;;;;;5.17;2.30;;;15.90;99.90;;;;;;5034123;28;20226;-61
2021/08/07 01:38:45;;;;;;;2.53;2.33;;;15.90;99.90;;;;;;5032980;28;20206;-60
2021/08/07 01:41:16;;;;;;;2.33;1.97;;;15.80;99.90;;;;;;5033819;28;20226;-61
2021/08/07 01:43:43;;;;;;;3.17;2.20;;;15.80;99.90;;;;;;5032956;28;20241;-61
2021/08/07 01:46:13;;;;;;;3.03;2.13;;;15.70;1.00;;;;;;5033887;28;20260;-61
2021/08/07 01:48:46;;;;;;;4.10;2.07;;;15.80;99.90;;;;;;5033519;28;20209;-61
2021/08/07 01:51:15;;;;;;;4.43;2.50;;;15.80;99.90;;;;;;5031800;28;20230;-60
2021/08/07 01:53:44;;;;;;;2.43;1.90;;;15.70;1.00;;;;;;5030752;28;20270;-61
2021/08/07 01:56:14;;;;;;;4.97;2.00;;;15.70;1.00;;;;;;5032575;28;20218;-61
2021/08/07 01:58:45;;;;;;;5.03;2.17;;;15.70;1.00;;;;;;5033468;28;20210;-61
2021/08/07 02:01:15;;;;;;;4.77;2.07;;;15.80;99.90;;;;;;5033564;28;20252;-60
2021/08/07 02:03:43;;;;;;;4.10;2.13;;;15.80;99.90;;;;;;5033669;28;20210;-61
2021/08/07 02:06:09;;;;;;;3.43;1.87;;;15.80;99.90;;;;;;5033572;28;20639;-61
2021/08/07 02:08:37;;;;;;;2.53;2.00;;;15.80;99.90;;;;;;5032773;28;20210;-61
2021/08/07 02:11:04;;;;;;;4.57;1.83;;;15.80;99.90;;;;;;5038413;28;20275;-61
2021/08/07 02:13:33;;;;;;;2.70;1.93;;;15.80;99.90;;;;;;5053372;28;20214;-61
2021/08/07 02:16:03;;;;;;;3.70;1.93;;;15.80;99.90;;;;;;5053409;28;20685;-60
2021/08/07 02:18:33;;;;;;;3.83;2.10;;;15.80;43.30;;;;;;5053410;28;20206;-60
2021/08/07 02:21:00;;;;;;;2.40;1.80;;;15.80;99.90;;;;;;5053251;28;20275;-61
2021/08/07 02:23:27;;;;;;;6.13;2.10;;;15.70;99.90;;;;;;5052219;28;20255;-61
2021/08/07 02:25:56;;;;;;;5.07;2.03;;;15.80;9.00;;;;;;5051576;28;20202;-60
2021/08/07 02:28:23;;;;;;;2.73;2.00;;;15.70;1.00;;;;;;5051684;28;20209;-61
2021/08/07 02:30:51;;;;;;;2.07;1.77;;;15.70;1.00;;;;;;5053027;28;20741;-61
2021/08/07 02:33:21;;;;;;;4.00;2.20;;;15.70;1.00;;;;;;5053065;28;20263;-61
2021/08/07 02:35:50;;;;;;;3.70;2.20;;;15.70;1.00;;;;;;5052437;28;20213;-61
2021/08/07 02:38:18;;;;;;;2.80;2.00;;;15.60;1.00;;;;;;5052925;28;20251;-61
2021/08/07 02:40:45;;;;;;;5.70;2.13;;;15.60;1.00;;;;;;5052076;28;20569;-61
2021/08/07 02:43:13;;;;;;;3.70;2.10;;;15.50;95.90;;;;;;5052772;28;20205;-61
2021/08/07 02:45:40;;;;;;;4.20;1.80;;;15.50;99.90;;;;;;5050784;28;20255;-61
2021/08/07 02:48:07;;;;;;;2.40;2.20;;;15.50;99.90;;;;;;5052870;28;20283;-61
2021/08/07 02:50:34;;;;;;;3.20;2.10;;;15.40;88.20;;;;;;5052726;28;20226;-62
2021/08/07 02:53:02;;;;;;;2.90;1.90;;;15.40;99.90;;;;;;5052028;28;20618;-60
2021/08/07 02:55:29;;;;;;;4.90;2.17;;;15.30;99.90;;;;;;5052620;28;20259;-61
2021/08/07 02:57:57;;;;;;;3.57;1.90;;;15.30;99.90;;;;;;5052505;28;20283;-61
2021/08/07 03:00:24;;;;;;;2.90;2.27;;;15.30;1.00;;;;;;5052456;28;20221;-61
2021/08/07 03:02:51;;;;;;;4.03;2.10;;;15.30;99.90;;;;;;5050336;28;20210;-61
2021/08/07 03:05:20;;;;;;;3.97;2.20;;;15.30;99.90;;;;;;5052407;28;20202;-61
2021/08/07 03:07:47;;;;;;;4.43;2.33;;;15.20;1.00;;;;;;5052433;28;20233;-59
2021/08/07 03:10:15;;;;;;;3.10;2.50;;;15.20;1.00;;;;;;5051826;28;20226;-60
2021/08/07 03:12:44;;;;;;;3.80;2.13;;;15.20;99.90;;;;;;5051697;28;20267;-62
2021/08/07 03:15:11;;;;;;;4.27;2.20;;;15.20;99.90;;;;;;5051613;28;20292;-60
2021/08/07 03:17:38;;;;;;;5.00;2.40;;;15.20;1.00;;;;;;5052102;28;20702;-61
2021/08/07 03:20:07;;;;;;;3.03;2.10;;;15.20;1.00;;;;;;5051042;28;20294;-60
2021/08/07 03:22:34;;;;;;;3.57;2.47;;;15.20;99.90;;;;;;5052279;28;20209;-61
2021/08/07 03:25:01;;;;;;;3.83;2.33;;;15.20;99.90;;;;;;5051765;28;20617;-60
2021/08/07 03:27:29;;;;;;;2.73;2.20;;;15.20;99.90;;;;;;5051597;28;20206;-60
2021/08/07 03:29:55;;;;;;;5.57;2.30;;;15.20;99.90;;;;;;5051549;28;20634;-63
2021/08/07 03:32:22;;;;;;;3.77;2.10;;;15.10;99.90;;;;;;5051890;28;20206;-63
2021/08/07 03:34:49;;;;;;;5.93;2.70;;;15.10;99.90;;;;;;5051762;28;20206;-63
2021/08/07 03:37:15;;;;;;;3.27;2.50;;;15.10;99.90;;;;;;5051553;28;20230;-63
2021/08/07 03:39:42;;;;;;;5.00;2.30;;;15.00;99.90;;;;;;5051904;28;20229;-63
2021/08/07 03:42:09;;;;;;;4.27;2.20;;;15.00;99.90;;;;;;5051730;28;20206;-62
2021/08/07 03:44:36;;;;;;;3.63;2.23;;;15.00;99.90;;;;;;5051650;28;20259;-63
2021/08/07 03:47:03;;;;;;;3.27;2.37;;;14.90;99.90;;;;;;5050954;28;20290;-62
2021/08/07 03:49:30;;;;;;;2.77;2.30;;;14.90;1.00;;;;;;5051117;28;20714;-63
2021/08/07 03:51:57;;;;;;;4.03;2.17;;;14.90;1.00;;;;;;5051751;28;20209;-63
2021/08/07 03:54:23;;;;;;;4.83;2.47;;;14.80;83.50;;;;;;5051485;28;20260;-62
2021/08/07 03:56:50;;;;;;;4.83;2.20;;;14.80;99.90;;;;;;5050508;28;20722;-62
2021/08/07 03:59:16;;;;;;;3.10;2.23;;;14.80;99.90;;;;;;5051092;28;20213;-63
2021/08/07 04:01:44;;;;;;;4.70;2.60;;;14.70;1.00;;;;;;5051696;28;20209;-60
2021/08/07 04:04:11;;;;;;;3.07;2.33;;;14.70;99.90;;;;;;5051021;28;20259;-62
2021/08/07 04:06:38;;;;;;;4.60;2.20;;;14.70;99.90;;;;;;5049861;28;20205;-62
2021/08/07 04:09:04;;;;;;;4.90;2.73;;;14.70;99.90;;;;;;5051229;28;20205;-62
2021/08/07 04:11:31;;;;;;;5.37;2.57;;;14.70;99.90;;;;;;5051339;28;20857;-62
2021/08/07 04:13:57;;;;;;;4.73;2.67;;;14.70;99.90;;;;;;5050817;28;20251;-62
2021/08/07 04:16:24;;;;;;;4.00;2.60;;;14.70;99.90;;;;;;5050744;28;20287;-62
2021/08/07 04:18:52;;;;;;;5.40;2.63;;;14.70;99.90;;;;;;5051418;28;20206;-63
2021/08/07 04:21:19;;;;;;;3.57;2.30;;;14.70;99.90;;;;;;5051171;28;20222;-62
2021/08/07 04:23:45;;;;;;;3.60;2.30;;;14.70;99.90;;;;;;5050391;28;20704;-63
2021/08/07 04:26:12;;;;;;;5.27;2.70;;;14.80;99.90;;;;;;5052787;28;20584;-62
2021/08/07 04:28:39;;;;;;;5.03;2.57;;;14.80;99.90;;;;;;5055052;28;20283;-62
2021/08/07 04:31:06;;;;;;;5.13;2.87;;;14.90;99.90;;;;;;5055424;28;20237;-62
2021/08/07 04:33:33;;;;;;;3.80;2.30;;;14.90;78.70;;;;;;5055205;28;20206;-62
2021/08/07 04:36:01;;;;;;;5.30;2.50;;;14.90;1.00;;;;;;5055418;28;20209;-62
2021/08/07 04:38:27;;;;;;;3.10;2.50;;;15.00;1.00;;;;;;5054938;28;20271;-62
2021/08/07 04:40:54;;;;;;;4.83;2.20;;;15.00;1.00;;;;;;5055085;28;20226;-62
2021/08/07 04:43:21;;;;;;;7.57;2.53;;;15.00;1.00;;;;;;5054797;28;20869;-62
2021/08/07 04:45:47;;;;;;;5.90;2.07;;;15.10;99.90;;;;;;5055159;28;20209;-62
2021/08/07 04:48:14;;;;;;;3.63;2.10;;;15.10;99.90;;;;;;5054898;28;20662;-62
2021/08/07 04:50:41;;;;;;;5.17;2.20;;;15.20;1.00;;;;;;5054112;28;20229;-62
2021/08/07 04:53:09;;;;;;;5.63;2.40;;;15.20;99.90;;;;;;5055002;28;20201;-62
2021/08/07 04:55:35;;;;;;;2.90;1.80;;;15.30;99.90;;;;;;5053312;28;20205;-62
2021/08/07 04:58:02;;;;;;;3.30;2.07;;;15.30;99.90;;;;;;5054313;28;20272;-63
2021/08/07 05:00:29;;;;;;;4.53;2.37;;;15.30;99.90;;;;;;5054114;28;20241;-62
2021/08/07 05:02:55;;;;;;;4.27;2.03;;;15.30;99.90;;;;;;5054783;28;20622;-62
2021/08/07 05:05:22;;;;;;;4.40;2.00;;;15.30;99.90;;;;;;5054645;28;20205;-62
2021/08/07 05:07:49;;;;;;;5.37;2.27;;;15.30;90.60;;;;;;5053582;28;20197;-62
2021/08/07 05:10:17;;;;;;;3.47;1.87;;;15.40;1.00;;;;;;5054938;28;20260;-62
2021/08/07 05:12:44;;;;;;;4.03;2.30;;;15.40;1.00;;;;;;5038478;28;20248;-62
2021/08/07 05:15:11;;;;;;;3.43;2.23;;;15.50;99.90;;;;;;5034946;28;20795;-63
2021/08/07 05:17:38;;;;;;;2.43;1.70;;;15.50;99.90;;;;;;5034351;28;20226;-63
2021/08/07 05:20:06;;;;;;;2.70;1.80;;;15.60;99.90;;;;;;5034549;28;20288;-63
2021/08/07 05:22:33;;;;;;;2.20;1.57;;;15.60;99.90;;;;;;5033838;28;20233;-62
2021/08/07 05:24:59;;;;;;;6.60;2.03;;;15.70;1.00;;;;;;5032282;28;20210;-62
2021/08/07 05:27:27;;;;;;;3.53;2.00;;;15.70;99.90;;;;;;5034581;28;20260;-62
2021/08/07 05:29:54;;;;;;;6.97;1.90;;;15.80;99.90;;;;;;5032624;28;20234;-62
2021/08/07 05:32:20;;;;;;;3.33;1.50;;;15.80;99.90;;;;;;5034240;28;20740;-62
2021/08/07 05:34:47;;;;;;;3.97;1.67;;;15.80;1.00;;;;;;5033304;28;20206;-63
2021/08/07 05:37:14;;;;;;;3.17;1.73;;;15.90;1.00;;;;;;5033190;28;20775;-62
2021/08/07 05:39:40;;;;;;;5.27;1.83;;;15.80;1.00;;;;;;5033714;28;20230;-62
2021/08/07 05:42:07;;;;;;;3.13;1.80;;;15.90;1.00;;;;;;5034080;28;20585;-63
2021/08/07 05:44:35;;;;;;;2.97;1.77;;;15.80;1.00;;;;;;5034689;28;20206;-62
2021/08/07 05:47:02;;;;;;;2.60;1.57;;;15.90;1.00;;;;;;5051665;28;20198;-62
2021/08/07 05:49:28;;;;;;;3.27;1.83;;;15.80;1.00;;;;;;5054083;28;20221;-62
2021/08/07 05:51:55;;;;;;;3.07;1.93;;;15.90;27.00;;;;;;5053330;28;20677;-62
2021/08/07 05:54:21;;;;;;;4.50;2.00;;;15.90;1.00;;;;;;5053639;28;20209;-62
2021/08/07 05:56:48;;;;;;;3.17;1.60;;;15.90;99.90;;;;;;5053621;28;20205;-62
2021/08/07 05:59:15;;;;;;;3.63;1.60;;;16.00;12.30;;;;;;5053760;28;20205;-62
2021/08/07 06:01:43;;;;;;;1.93;1.63;;;16.00;99.90;;;;;;5052980;28;20264;-63
2021/08/07 06:04:09;;;;;;;3.83;1.87;;;16.00;99.90;;;;;;5052979;28;20263;-62
2021/08/07 06:06:36;;;;;;;3.23;1.50;;;16.00;99.90;;;;;;5052628;28;20270;-61
2021/08/07 06:09:03;;;;;;;2.93;1.50;;;16.00;74.00;;;;;;5053442;28;20662;-62
2021/08/07 06:11:29;;;;;;;3.80;1.63;;;16.00;99.90;;;;;;5052743;28;20209;-62
2021/08/07 06:13:56;;;;;;;4.90;1.50;;;16.00;99.90;;;;;;5052685;28;20210;-62
2021/08/07 06:16:23;;;;;;;4.87;1.73;;;16.00;99.90;;;;;;5053447;28;20206;-62
2021/08/07 06:18:50;;;;;;;3.43;1.50;;;16.00;99.90;;;;;;5050532;28;20743;-62
2021/08/07 06:21:17;;;;;;;2.47;1.90;;;16.10;99.90;;;;;;5032834;28;20236;-62
2021/08/07 06:23:44;;;;;;;4.47;1.53;;;16.10;99.90;;;;;;5033934;28;20214;-62
2021/08/07 06:26:10;;;;;;;4.03;1.50;;;16.20;99.90;;;;;;5033603;28;20222;-62
2021/08/07 06:28:39;;;;;;;5.23;1.40;;;16.30;99.90;;;;;;5033521;28;20257;-62
2021/08/07 06:31:06;;;;;;;4.83;1.90;;;16.30;99.90;;;;;;5032878;28;20234;-62
2021/08/07 06:33:32;;;;;;;5.93;1.40;;;16.40;1.00;;;;;;5032796;28;20294;-62
2021/08/07 06:36:01;;;;;;;6.67;2.10;;;16.50;99.90;;;;;;5044428;28;20214;-62
2021/08/07 06:38:28;;;;;;;2.20;1.50;;;16.40;99.90;;;;;;5032485;28;20226;-62
2021/08/07 06:40:54;;;;;;;3.00;1.40;;;16.50;99.90;;;;;;5032803;28;20300;-62
2021/08/07 06:43:21;;;;;;;3.10;1.33;;;16.50;99.90;;;;;;5032634;28;20637;-62
2021/08/07 06:45:48;;;;;;;5.07;1.80;;;16.60;99.90;;;;;;5032194;28;20206;-62
2021/08/07 06:48:15;;;;;;;3.83;1.60;;;16.70;99.90;;;;;;5030757;28;20668;-61
2021/08/07 06:50:41;;;;;;;3.37;1.43;;;16.80;1.00;;;;;;5032996;28;20230;-62
2021/08/07 06:53:10;;;;;;;5.67;1.60;;;16.90;1.00;;;;;;5031195;28;20202;-61
2021/08/07 06:55:36;;;;;;;2.73;1.30;;;17.00;99.90;;;;;;5031839;28;20256;-62
2021/08/07 06:58:03;;;;;;;3.43;1.53;;;17.20;99.90;;;;;;5032134;28;20222;-62
2021/08/07 07:00:29;;;;;;;3.60;1.43;;;17.20;99.90;;;;;;5032416;28;20226;-62
2021/08/07 07:02:56;;;;;;;5.90;1.70;;;17.20;1.00;;;;;;5046845;28;20228;-62
2021/08/07 07:05:23;;;;;;;2.53;1.40;;;17.30;1.00;;;;;;5051815;28;20206;-62
2021/08/07 07:07:49;;;;;;;5.23;1.90;;;17.40;99.90;;;;;;5051717;28;20221;-62
2021/08/07 07:10:17;;;;;;;5.17;1.37;;;17.40;99.90;;;;;;5047146;28;20272;-62
2021/08/07 07:12:44;;;;;;;3.93;1.37;;;17.40;99.90;;;;;;5051993;28;20275;-62
2021/08/07 07:15:11;;;;;;;2.77;1.23;;;17.40;99.90;;;;;;5051065;28;20256;-62
2021/08/07 07:17:37;;;;;;;3.07;1.50;;;17.40;99.90;;;;;;5051900;28;20222;-62
2021/08/07 07:20:06;;;;;;;4.30;1.60;;;17.40;99.90;;;;;;5052333;28;20631;-62
2021/08/07 07:22:33;;;;;;;4.93;1.80;;;17.30;99.90;;;;;;5052169;28;20574;-61
2021/08/07 07:24:59;;;;;;;4.77;1.40;;;17.20;99.90;;;;;;5051897;28;20206;-62
2021/08/07 07:27:27;;;;;;;5.63;1.63;;;17.20;99.90;;;;;;5049597;28;20283;-62
2021/08/07 07:29:54;;;;;;;7.53;1.80;;;17.10;99.90;;;;;;5051755;28;20249;-62
2021/08/07 07:32:21;;;;;;;5.47;2.13;;;17.00;99.90;;;;;;5051299;28;20201;-61
2021/08/07 07:34:47;;;;;;;8.00;2.30;;;16.80;1.00;;;;;;5052000;28;20205;-60
2021/08/07 07:37:14;;;;;;;6.57;2.90;;;16.60;1.00;;;;;;5047696;28;20615;-62
2021/08/07 07:39:41;;;;;;;6.13;2.27;;;16.30;1.00;;;;;;5050984;28;20229;-61
2021/08/07 07:42:08;;;;;;;7.70;2.90;;;16.20;99.90;;;;;;5051445;28;20213;-62
2021/08/07 07:44:36;;;;;;;7.30;2.70;;;16.10;1.00;;;;;;5041447;28;20207;-62
2021/08/07 07:47:03;;;;;;;5.37;2.60;;;16.20;99.90;;;;;;5031361;28;20233;-62
2021/08/07 07:49:32;;;;;;;4.97;2.70;;;16.20;99.90;;;;;;5031687;28;20276;-63
2021/08/07 07:51:58;;;;;;;5.13;2.70;;;16.20;99.90;;;;;;5031439;28;20202;-62
2021/08/07 07:54:25;;;;;;;4.00;2.83;;;16.30;99.90;;;;;;5031019;28;20659;-62
2021/08/07 07:56:53;;;;;;;6.27;2.80;;;16.30;99.90;;;;;;5030727;28;20210;-62
2021/08/07 07:59:19;;;;;;;5.93;3.13;;;16.40;1.00;;;;;;5031023;28;20238;-62
2021/08/07 08:01:47;;;;;;;6.73;2.97;;;16.50;1.00;;;;;;5032928;28;20205;-62
2021/08/07 08:04:14;;;;;;;5.77;2.90;;;16.80;1.00;;;;;;5051106;28;20236;-62
2021/08/07 08:06:41;;;;;;;5.00;2.30;;;16.90;1.00;;;;;;5051024;28;20743;-62
2021/08/07 08:09:07;;;;;;;6.97;2.30;;;17.10;99.90;;;;;;5050787;28;20659;-62
2021/08/07 08:11:34;;;;;;;4.70;2.40;;;17.20;99.90;;;;;;5050010;28;20201;-63
2021/08/07 08:14:01;;;;;;;5.40;2.27;;;17.30;99.90;;;;;;5050192;28;20205;-62
2021/08/07 08:16:28;;;;;;;5.00;2.20;;;17.40;1.00;;;;;;5050966;28;20216;-62
2021/08/07 08:18:56;;;;;;;6.00;2.57;;;17.50;99.90;;;;;;5050931;28;20706;-68
2021/08/07 08:21:22;;;;;;;4.50;2.30;;;17.60;1.00;;;;;;5030135;28;20280;-65
2021/08/07 08:23:49;;;;;;;6.13;2.17;;;17.80;1.00;;;;;;5030913;28;20217;-64
2021/08/07 08:26:15;;;;;;;6.60;2.40;;;18.00;99.90;;;;;;5033297;28;20205;-61
2021/08/07 08:28:42;;;;;;;3.37;2.03;;;18.20;99.90;;;;;;5050147;28;20622;-62
2021/08/07 08:31:09;;;;;;;3.87;2.13;;;18.30;99.90;;;;;;5050089;28;20229;-61
2021/08/07 08:33:35;;;;;;;5.67;2.10;;;18.30;99.90;;;;;;5050760;28;20205;-60
2021/08/07 08:36:05;;;;;;;3.33;1.80;;;18.20;1.00;;;;;;5050301;28;20263;-64
2021/08/07 08:38:32;;;;;;;5.20;2.30;;;18.30;99.90;;;;;;5050374;28;20324;-64
2021/08/07 08:41:00;;;;;;;5.43;2.63;;;18.50;1.00;;;;;;5050244;28;20260;-62
2021/08/07 08:43:27;;;;;;;3.90;2.10;;;18.70;1.00;;;;;;5050766;28;20569;-62
2021/08/07 08:45:53;;;;;;;7.70;2.40;;;18.90;99.90;;;;;;5051108;28;20210;-62
2021/08/07 08:48:21;;;;;;;3.43;2.10;;;18.90;99.90;;;;;;5050661;28;20632;-63
2021/08/07 08:50:48;;;;;;;3.37;2.03;;;19.00;99.90;;;;;;5050746;28;20731;-62
2021/08/07 08:53:17;;;;;;;4.73;2.30;;;19.00;1.00;;;;;;5050475;28;20209;-62
2021/08/07 08:55:44;;;;;;;6.03;2.90;;;19.00;1.00;;;;;;5050608;28;20776;-64
2021/08/07 08:58:10;;;;;;;4.40;2.37;;;19.00;73.10;;;;;;5050210;28;20234;-64
2021/08/07 09:00:37;;;;;;;7.87;2.40;;;18.90;1.00;;;;;;5050675;28;20229;-63
2021/08/07 09:03:04;;;;;;;4.23;2.47;;;18.80;1.00;;;;;;5050248;28;20267;-63
2021/08/07 09:05:31;;;;;;;6.40;2.43;;;18.80;1.00;;;;;;5050369;28;20214;-61
2021/08/07 09:07:58;;;;;;;6.17;2.20;;;18.80;53.00;;;;;;5050325;28;20205;-61
2021/08/07 09:10:26;;;;;;;5.83;2.60;;;18.90;99.90;;;;;;5050236;28;20584;-67
2021/08/07 09:12:56;;;;;;;7.20;2.43;;;19.10;99.90;;;;;;5052705;28;20252;-67
2021/08/07 09:15:32;;;;;;;5.43;2.00;;;19.40;1.00;;;;;;5054126;28;20257;-66
2021/08/07 09:18:21;;;;;;;4.47;2.40;;;19.70;99.90;;;;;;5053326;28;20222;-64
2021/08/07 09:20:49;;;;;;;5.30;2.10;;;20.20;1.00;;;;;;5054279;28;20233;-63
2021/08/07 09:23:28;;;;;;;4.60;2.30;;;20.20;1.00;;;;;;5054096;28;20209;-63
2021/08/07 09:25:56;;;;;;;5.20;2.53;;;20.20;54.70;;;;;;5053472;28;20210;-63
2021/08/07 09:28:22;;;;;;;5.23;2.33;;;19.90;99.90;;;;;;5034092;28;20234;-66
2021/08/07 09:30:49;;;;;;;2.67;1.87;;;19.80;99.90;;;;;;5034132;28;20238;-66
2021/08/07 09:33:24;;;;;;;4.67;2.40;;;20.00;50.30;;;;;;5034217;28;20210;-65
2021/08/07 09:35:50;;;;;;;4.60;2.10;;;20.30;1.00;;;;;;5034139;28;20212;-66
2021/08/07 09:38:22;;;;;;;6.27;2.50;;;20.40;99.90;;;;;;5033893;28;20280;-65
2021/08/07 09:40:52;;;;;;;3.57;1.93;;;20.40;99.90;;;;;;5034030;28;20292;-65
2021/08/07 09:43:22;;;;;;;5.13;2.40;;;20.40;99.90;;;;;;5033423;28;20670;-65
2021/08/07 09:46:02;;;;;;;4.63;2.53;;;20.60;92.60;;;;;;5034120;28;20206;-66
2021/08/07 09:48:34;;;;;;;4.97;2.23;;;20.40;99.90;;;;;;5033715;28;20604;-65
2021/08/07 09:51:13;;;;;;;6.00;2.10;;;20.10;99.90;;;;;;5033065;28;20661;-66
2021/08/07 09:53:40;;;;;;;5.87;1.90;;;20.10;99.90;;;;;;5033382;28;20213;-65
2021/08/07 09:56:09;;;;;;;2.47;1.67;;;20.10;99.90;;;;;;5033255;28;20233;-66
2021/08/07 09:58:37;;;;;;;3.77;2.07;;;20.00;84.90;;;;;;5033100;28;20234;-66
2021/08/07 10:01:04;;;;;;;4.90;2.23;;;19.80;99.90;;;;;;5033598;28;20722;-67
2021/08/07 10:03:33;;;;;;;6.17;2.13;;;19.60;99.90;;;;;;5033476;28;20206;-65
2021/08/07 10:06:19;;;;;;;5.60;1.90;;;19.60;99.90;;;;;;5032866;28;20891;-66
2021/08/07 10:08:47;;;;;;;5.27;1.87;;;19.50;99.90;;;;;;5033858;28;20249;-66
2021/08/07 10:11:14;;;;;;;3.87;2.00;;;19.40;99.90;;;;;;5033228;28;20850;-66
2021/08/07 10:13:42;;;;;;;6.07;2.20;;;19.50;99.90;;;;;;5033254;28;20256;-62
2021/08/07 10:16:09;;;;;;;4.50;2.03;;;19.40;99.90;;;;;;5032983;28;20724;-63
2021/08/07 10:18:37;;;;;;;5.73;2.30;;;19.40;99.90;;;;;;5033384;28;20300;-63
2021/08/07 10:21:05;;;;;;;4.43;2.17;;;19.20;99.90;;;;;;5033022;28;20750;-65
2021/08/07 10:23:33;;;;;;;3.50;1.60;;;19.00;99.90;;;;;;5032942;28;20214;-66
2021/08/07 10:26:00;;;;;;;5.43;1.73;;;19.00;99.90;;;;;;5032983;28;20678;-65
2021/08/07 10:28:29;;;;;;;4.87;2.07;;;19.10;99.90;;;;;;5032940;28;20206;-65
2021/08/07 10:30:59;;;;;;;4.07;1.97;;;19.10;1.00;;;;;;5032552;28;20772;-65
2021/08/07 10:33:26;;;;;;;3.53;1.90;;;19.10;1.00;;;;;;5032766;28;20621;-65
2021/08/07 10:35:54;;;;;;;3.03;1.70;;;19.20;99.90;;;;;;5032910;28;20640;-65
2021/08/07 10:38:21;;;;;;;4.40;1.80;;;19.30;99.90;;;;;;5036958;28;20210;-66
2021/08/07 10:40:48;;;;;;;10.87;2.13;;;19.40;1.00;;;;;;5052524;28;20229;-66
2021/08/07 10:43:18;;;;;;;3.47;1.70;;;19.60;1.00;;;;;;5052420;28;20813;-67
2021/08/07 10:45:45;;;;;;;3.77;1.73;;;19.90;99.90;;;;;;5052094;28;20209;-69
2021/08/07 10:48:41;;;;;;;4.17;2.00;;;20.20;99.90;;;;;;5052349;28;20791;-67
2021/08/07 10:51:37;;;;;;;3.23;1.80;;;20.40;1.00;;;;;;5052261;28;20225;-66
2021/08/07 10:54:07;;;;;;;4.97;2.03;;;20.20;1.00;;;;;;5051976;28;20205;-66
2021/08/07 10:56:36;;;;;;;3.50;2.00;;;20.20;1.00;;;;;;5052389;28;20720;-66
2021/08/07 10:59:24;;;;;;;10.77;2.40;;;20.20;1.00;;;;;;5052281;28;20229;-66
2021/08/07 11:01:52;;;;;;;5.90;1.70;;;20.10;32.20;;;;;;5051351;28;20275;-66
2021/08/07 11:04:23;;;;;;;5.00;1.80;;;20.10;1.00;;;;;;5051685;28;20205;-66
2021/08/07 11:07:16;;;;;;;5.43;1.77;;;20.30;10.60;;;;;;5052008;28;20909;-68
2021/08/07 11:09:43;;;;;;;3.53;1.50;;;20.30;1.00;;;;;;5052227;28;20587;-67
2021/08/07 11:12:28;;;;;;;4.20;1.27;;;20.20;1.00;;;;;;5051695;28;20259;-67
2021/08/07 11:15:00;;;;;;;4.97;1.57;;;20.30;1.00;;;;;;5051561;28;20206;-67
2021/08/07 11:17:46;;;;;;;5.93;1.40;;;20.40;1.00;;;;;;5051870;28;20201;-69
2021/08/07 11:20:31;;;;;;;3.10;1.40;;;20.50;1.00;;;;;;5051544;28;20587;-69
2021/08/07 11:23:14;;;;;;;6.57;1.60;;;20.60;1.00;;;;;;5054847;28;20756;-67
2021/08/07 11:25:58;;;;;;;2.77;1.53;;;20.60;1.00;;;;;;5052097;28;20205;-69
2021/08/07 11:28:25;;;;;;;5.40;1.50;;;20.50;1.00;;;;;;5051848;28;20212;-72
2021/08/07 11:31:11;;;;;;;6.97;1.50;;;20.50;1.00;;;;;;5051633;28;20272;-69
2021/08/07 11:33:38;;;;;;;5.67;1.77;;;20.50;1.00;;;;;;5052595;28;20824;-70
2021/08/07 11:36:12;;;;;;;6.37;1.47;;;20.40;1.00;;;;;;5053269;28;20228;-70
2021/08/07 11:38:58;;;;;;;4.53;1.60;;;20.40;99.90;;;;;;5052900;28;20190;-66
2021/08/07 11:41:33;;;;;;;5.30;1.77;;;20.30;1.00;;;;;;5051533;28;20763;-67
2021/08/07 11:44:02;;;;;;;4.70;1.50;;;20.10;1.00;;;;;;5052037;28;20232;-67
2021/08/07 11:46:37;;;;;;;3.50;1.70;;;20.00;1.00;;;;;;5051841;28;20610;-66
2021/08/07 11:49:05;;;;;;;3.27;1.60;;;19.90;1.00;;;;;;5051459;28;20582;-64
2021/08/07 11:51:33;;;;;;;5.90;1.97;;;19.80;1.00;;;;;;5051746;28;20205;-66
2021/08/07 11:54:00;;;;;;;5.03;1.80;;;19.60;1.00;;;;;;5051428;28;20213;-66
2021/08/07 11:56:27;;;;;;;3.10;1.60;;;19.60;1.00;;;;;;5050972;28;20271;-67
2021/08/07 11:58:55;;;;;;;4.30;1.73;;;19.70;1.00;;;;;;5051861;28;20226;-67
2021/08/07 12:01:26;;;;;;;5.60;1.43;;;19.60;1.00;;;;;;5051799;28;20229;-67
2021/08/07 12:03:55;;;;;;;3.47;1.57;;;19.40;1.00;;;;;;5051574;28;20237;-67
2021/08/07 12:06:27;;;;;;;4.07;1.50;;;19.30;1.00;;;;;;5051667;28;20634;-66
2021/08/07 12:08:55;;;;;;;3.47;1.50;;;19.30;1.00;;;;;;5051583;28;20209;-67
2021/08/07 12:11:22;;;;;;;5.27;1.57;;;19.30;1.00;;;;;;5051173;28;20230;-68
2021/08/07 12:13:51;;;;;;;2.67;1.50;;;19.30;1.00;;;;;;5050952;28;20570;-65
2021/08/07 12:16:20;;;;;;;5.33;1.40;;;19.40;1.00;;;;;;5051073;28;20201;-63
2021/08/07 12:18:49;;;;;;;5.37;1.83;;;19.40;1.00;;;;;;5051060;28;20619;-65
2021/08/07 12:21:28;;;;;;;6.17;1.83;;;19.50;10.00;;;;;;5051040;28;20236;-65
2021/08/07 12:23:57;;;;;;;4.37;1.30;;;19.50;1.00;;;;;;5051260;28;20662;-65
2021/08/07 12:26:25;;;;;;;2.87;1.20;;;19.50;1.00;;;;;;5050828;28;20205;-64
2021/08/07 12:29:01;;;;;;;3.33;1.10;;;19.40;1.00;;;;;;5051268;28;20209;-65
2021/08/07 12:31:43;;;;;;;4.97;1.50;;;19.40;1.00;;;;;;5050610;28;20290;-66
2021/08/07 12:34:12;;;;;;;2.90;1.23;;;19.50;1.00;;;;;;5050745;28;20206;-69
2021/08/07 12:36:38;;;;;;;2.07;1.10;;;19.60;1.00;;;;;;5050884;28;20201;-68
2021/08/07 12:39:06;;;;;;;3.37;1.07;;;19.90;1.00;;;;;;5051043;28;20779;-69
2021/08/07 12:41:34;;;;;;;2.33;1.10;;;20.10;1.00;;;;;;5050628;28;20282;-69
2021/08/07 12:44:00;;;;;;;4.00;1.33;;;20.50;99.90;;;;;;5050905;28;20209;-68
2021/08/07 12:46:27;;;;;;;6.37;1.17;;;20.80;99.90;;;;;;5050916;28;20205;-68
2021/08/07 12:48:56;;;;;;;6.07;1.27;;;20.90;99.90;;;;;;5053099;28;20214;-67
2021/08/07 12:51:25;;;;;;;5.07;1.20;;;21.20;99.90;;;;;;5055249;28;20233;-68
2021/08/07 12:53:52;;;;;;;3.40;1.00;;;21.40;99.90;;;;;;5054479;28;20202;-69
2021/08/07 12:56:20;;;;;;;3.70;1.00;;;21.60;99.90;;;;;;5054576;28;20736;-66
2021/08/07 12:59:01;;;;;;;2.83;0.90;;;21.70;99.90;;;;;;5054190;28;20205;-67